createdAt,value
2018-07-07T00:01:16.085Z,13.03
2018-07-07T00:03:42.996Z,12.95
2018-07-07T00:06:09.932Z,13.03
2018-07-07T00:08:36.849Z,12.97
2018-07-07T00:11:03.780Z,12.99
2018-07-07T00:13:30.708Z,12.98
2018-07-07T00:15:57.638Z,13.04
2018-07-07T00:18:24.580Z,13.00
2018-07-07T00:20:51.545Z,13.00
2018-07-07T00:23:18.449Z,12.97
2018-07-07T00:25:45.360Z,12.88
2018-07-07T00:28:12.300Z,12.88
2018-07-07T00:30:39.240Z,12.86
2018-07-07T00:33:06.171Z,12.86
2018-07-07T00:35:33.087Z,12.88
2018-07-07T00:37:59.992Z,12.89
2018-07-07T00:40:26.932Z,12.86
2018-07-07T00:42:53.875Z,12.95
2018-07-07T00:45:20.789Z,12.85
2018-07-07T00:47:47.719Z,12.87
2018-07-07T00:50:14.645Z,12.95
2018-07-07T00:52:41.556Z,12.93
2018-07-07T00:55:08.474Z,12.87
2018-07-07T00:57:35.417Z,12.94
2018-07-07T01:00:02.408Z,12.91
2018-07-07T01:02:29.339Z,12.93
2018-07-07T01:04:56.280Z,12.97
2018-07-07T01:07:23.652Z,13.02
2018-07-07T01:09:50.664Z,12.96
2018-07-07T01:12:17.656Z,13.01
2018-07-07T01:14:44.609Z,13.00
2018-07-07T01:17:11.537Z,12.97
2018-07-07T01:19:38.714Z,12.99
2018-07-07T01:22:07.638Z,12.99
2018-07-07T01:24:34.552Z,13.01
2018-07-07T01:27:01.489Z,13.04
2018-07-07T01:29:29.009Z,13.07
2018-07-07T01:31:55.943Z,13.05
2018-07-07T01:34:22.872Z,13.01
2018-07-07T01:36:53.520Z,13.01
2018-07-07T01:39:21.473Z,13.00
2018-07-07T01:41:48.947Z,13.00
2018-07-07T01:44:16.274Z,12.99
2018-07-07T01:46:43.285Z,12.99
2018-07-07T01:49:10.352Z,12.97
2018-07-07T01:51:37.306Z,12.95
2018-07-07T01:54:04.390Z,13.00
2018-07-07T01:56:31.336Z,12.96
2018-07-07T01:58:59.549Z,12.96
2018-07-07T02:01:26.730Z,12.97
2018-07-07T02:03:53.670Z,12.93
2018-07-07T02:06:20.621Z,12.99
2018-07-07T02:08:47.578Z,13.08
2018-07-07T02:11:15.505Z,13.08
2018-07-07T02:13:42.460Z,13.07
2018-07-07T02:16:09.384Z,13.07
2018-07-07T02:18:36.325Z,13.16
2018-07-07T02:21:03.300Z,13.10
2018-07-07T02:23:30.277Z,13.11
2018-07-07T02:25:57.222Z,13.13
2018-07-07T02:28:24.149Z,13.17
2018-07-07T02:30:51.090Z,13.13
2018-07-07T02:33:18.045Z,13.12
2018-07-07T02:35:44.973Z,13.12
2018-07-07T02:38:11.902Z,13.15
2018-07-07T02:40:38.846Z,13.14
2018-07-07T02:43:05.777Z,13.10
2018-07-07T02:45:32.726Z,13.05
2018-07-07T02:47:59.678Z,13.07
2018-07-07T02:50:26.617Z,13.04
2018-07-07T02:52:53.537Z,13.01
2018-07-07T02:55:20.460Z,13.00
2018-07-07T02:57:47.407Z,12.97
2018-07-07T03:00:14.318Z,12.94
2018-07-07T03:02:41.262Z,12.92
2018-07-07T03:05:08.175Z,12.89
2018-07-07T03:07:35.100Z,12.89
2018-07-07T03:10:02.048Z,12.91
2018-07-07T03:12:28.981Z,12.85
2018-07-07T03:14:55.902Z,12.90
2018-07-07T03:17:22.835Z,12.89
2018-07-07T03:19:50.051Z,12.89
2018-07-07T03:22:17.002Z,12.87
2018-07-07T03:24:43.933Z,12.86
2018-07-07T03:27:10.844Z,12.84
2018-07-07T03:29:37.789Z,12.82
2018-07-07T03:32:04.899Z,12.82
2018-07-07T03:34:31.824Z,12.78
2018-07-07T03:36:58.745Z,12.79
2018-07-07T03:39:25.659Z,12.83
2018-07-07T03:41:52.559Z,12.87
2018-07-07T03:44:19.500Z,12.90
2018-07-07T03:46:46.407Z,12.92
2018-07-07T03:49:13.333Z,12.92
2018-07-07T03:51:40.231Z,12.94
2018-07-07T03:54:07.188Z,12.97
2018-07-07T03:56:34.094Z,12.99
2018-07-07T03:59:01.013Z,13.06
2018-07-07T04:01:27.945Z,13.10
2018-07-07T04:03:54.855Z,13.11
2018-07-07T04:06:21.753Z,13.13
2018-07-07T04:08:48.655Z,13.18
2018-07-07T04:11:15.556Z,13.18
2018-07-07T04:13:42.471Z,13.29
2018-07-07T04:16:09.361Z,13.33
2018-07-07T04:18:36.264Z,13.37
2018-07-07T04:21:04.331Z,13.42
2018-07-07T04:23:31.818Z,13.48
2018-07-07T04:25:58.926Z,13.53
2018-07-07T04:28:25.944Z,13.59
2018-07-07T04:30:52.884Z,13.61
2018-07-07T04:33:19.840Z,13.63
2018-07-07T04:35:47.445Z,13.70
2018-07-07T04:38:14.372Z,13.74
2018-07-07T04:40:41.280Z,13.77
2018-07-07T04:43:08.208Z,13.85
2018-07-07T04:45:35.173Z,13.88
2018-07-07T04:48:02.099Z,13.84
2018-07-07T04:50:29.029Z,13.90
2018-07-07T04:52:55.931Z,13.97
2018-07-07T04:55:22.848Z,13.99
2018-07-07T04:57:49.765Z,14.09
2018-07-07T05:00:16.704Z,14.13
2018-07-07T05:02:43.604Z,14.15
2018-07-07T05:05:10.522Z,14.27
2018-07-07T05:07:37.436Z,14.26
2018-07-07T05:10:04.377Z,14.31
2018-07-07T05:12:31.280Z,14.34
2018-07-07T05:14:58.192Z,14.34
2018-07-07T05:17:25.116Z,14.28
2018-07-07T05:19:52.050Z,14.36
2018-07-07T05:22:18.970Z,14.40
2018-07-07T05:24:46.179Z,14.56
2018-07-07T05:27:13.088Z,14.61
2018-07-07T05:29:40.010Z,14.66
2018-07-07T05:32:06.953Z,14.62
2018-07-07T05:34:33.869Z,14.75
2018-07-07T05:37:00.792Z,14.82
2018-07-07T05:39:27.729Z,14.91
2018-07-07T05:41:54.651Z,14.85
2018-07-07T05:44:21.570Z,14.99
2018-07-07T05:46:48.496Z,15.03
2018-07-07T05:49:15.421Z,15.06
2018-07-07T05:51:42.324Z,15.10
2018-07-07T05:54:09.265Z,15.39
2018-07-07T05:56:36.177Z,15.41
2018-07-07T05:59:03.250Z,15.34
2018-07-07T06:01:30.162Z,15.45
2018-07-07T06:03:57.064Z,15.57
2018-07-07T06:06:23.959Z,15.50
2018-07-07T06:08:50.852Z,15.57
2018-07-07T06:11:17.761Z,15.59
2018-07-07T06:13:44.688Z,15.64
2018-07-07T06:16:11.607Z,15.48
2018-07-07T06:18:38.502Z,15.77
2018-07-07T06:21:05.433Z,15.72
2018-07-07T06:23:32.383Z,15.87
2018-07-07T06:25:59.312Z,15.73
2018-07-07T06:28:26.204Z,15.77
2018-07-07T06:30:53.118Z,15.82
2018-07-07T06:33:20.013Z,15.97
2018-07-07T06:35:46.912Z,16.23
2018-07-07T06:38:13.796Z,16.27
2018-07-07T06:40:40.715Z,16.08
2018-07-07T06:43:07.608Z,16.13
2018-07-07T06:45:34.545Z,16.38
2018-07-07T06:48:01.412Z,16.42
2018-07-07T06:50:28.330Z,16.49
2018-07-07T06:52:55.228Z,16.60
2018-07-07T06:55:22.149Z,16.59
2018-07-07T06:57:49.044Z,16.53
2018-07-07T07:00:15.949Z,16.54
2018-07-07T07:02:42.856Z,16.54
2018-07-07T07:05:09.774Z,16.88
2018-07-07T07:07:36.681Z,16.82
2018-07-07T07:10:03.678Z,16.84
2018-07-07T07:12:30.630Z,16.86
2018-07-07T07:14:57.546Z,17.05
2018-07-07T07:17:24.445Z,17.13
2018-07-07T07:19:51.379Z,17.13
2018-07-07T07:22:18.263Z,17.23
2018-07-07T07:24:45.157Z,17.23
2018-07-07T07:27:12.075Z,17.42
2018-07-07T07:29:39.071Z,17.16
2018-07-07T07:32:05.977Z,17.44
2018-07-07T07:34:32.902Z,17.77
2018-07-07T07:36:59.829Z,17.54
2018-07-07T07:39:26.748Z,17.41
2018-07-07T07:41:53.676Z,17.29
2018-07-07T07:44:20.571Z,17.42
2018-07-07T07:46:47.485Z,17.80
2018-07-07T07:49:14.393Z,17.67
2018-07-07T07:51:41.337Z,17.86
2018-07-07T07:54:08.228Z,18.02
2018-07-07T07:56:35.149Z,17.82
2018-07-07T07:59:02.122Z,18.18
2018-07-07T08:01:28.977Z,18.11
2018-07-07T08:03:56.380Z,18.00
2018-07-07T08:06:23.321Z,17.92
2018-07-07T08:08:50.232Z,17.81
2018-07-07T08:11:17.153Z,18.05
2018-07-07T08:13:44.046Z,18.34
2018-07-07T08:16:10.985Z,18.13
2018-07-07T08:18:37.921Z,18.47
2018-07-07T08:21:04.874Z,18.31
2018-07-07T08:23:31.774Z,18.46
2018-07-07T08:25:58.716Z,18.56
2018-07-07T08:28:25.744Z,18.69
2018-07-07T08:30:53.017Z,18.39
2018-07-07T08:33:19.931Z,18.40
2018-07-07T08:35:46.853Z,18.49
2018-07-07T08:38:16.609Z,18.61
2018-07-07T08:40:43.848Z,18.40
2018-07-07T08:43:12.552Z,18.27
2018-07-07T08:45:39.560Z,18.67
2018-07-07T08:48:06.518Z,18.91
2018-07-07T08:50:33.425Z,18.40
2018-07-07T08:53:00.333Z,18.42
2018-07-07T08:55:27.235Z,18.97
2018-07-07T08:57:54.236Z,18.72
2018-07-07T09:00:21.136Z,19.08
2018-07-07T09:02:48.033Z,19.11
2018-07-07T09:05:14.959Z,19.05
2018-07-07T09:07:41.943Z,19.15
2018-07-07T09:10:08.825Z,19.15
2018-07-07T09:12:35.733Z,18.78
2018-07-07T09:15:02.656Z,19.09
2018-07-07T09:17:29.633Z,19.20
2018-07-07T09:19:56.533Z,19.60
2018-07-07T09:22:23.445Z,19.28
2018-07-07T09:24:50.356Z,19.24
2018-07-07T09:27:17.268Z,19.67
2018-07-07T09:29:44.151Z,19.64
2018-07-07T09:32:11.088Z,19.05
2018-07-07T09:34:37.984Z,19.60
2018-07-07T09:37:04.911Z,19.41
2018-07-07T09:39:31.815Z,19.38
2018-07-07T09:41:58.744Z,19.67
2018-07-07T09:44:25.701Z,19.88
2018-07-07T09:46:52.648Z,19.76
2018-07-07T09:49:19.673Z,19.97
2018-07-07T09:51:47.379Z,19.78
2018-07-07T09:54:14.291Z,20.13
2018-07-07T09:56:41.212Z,19.66
2018-07-07T09:59:08.204Z,19.63
2018-07-07T10:01:35.142Z,19.61
2018-07-07T10:04:02.050Z,19.48
2018-07-07T10:06:29.541Z,19.69
2018-07-07T10:08:56.456Z,19.77
2018-07-07T10:11:23.642Z,20.07
2018-07-07T10:13:50.931Z,20.40
2018-07-07T10:16:17.814Z,20.06
2018-07-07T10:18:44.740Z,19.65
2018-07-07T10:21:11.661Z,19.82
2018-07-07T10:23:38.587Z,19.88
2018-07-07T10:26:05.657Z,19.65
2018-07-07T10:28:33.060Z,20.10
2018-07-07T10:30:59.949Z,19.33
2018-07-07T10:33:26.879Z,20.26
2018-07-07T10:35:53.805Z,19.98
2018-07-07T10:38:20.790Z,20.49
2018-07-07T10:40:47.656Z,20.63
2018-07-07T10:43:14.571Z,20.28
2018-07-07T10:45:41.554Z,19.94
2018-07-07T10:48:08.408Z,20.51
2018-07-07T10:50:35.775Z,20.26
2018-07-07T10:53:02.740Z,19.97
2018-07-07T10:55:29.704Z,20.12
2018-07-07T10:57:56.581Z,20.63
2018-07-07T11:00:23.524Z,20.68
2018-07-07T11:02:55.402Z,20.89
2018-07-07T11:05:24.115Z,21.32
2018-07-07T11:07:52.070Z,20.92
2018-07-07T11:10:18.972Z,20.30
2018-07-07T11:12:45.882Z,20.92
2018-07-07T11:15:12.789Z,20.75
2018-07-07T11:17:39.708Z,20.37
2018-07-07T11:20:06.700Z,20.95
2018-07-07T11:22:33.785Z,21.05
2018-07-07T11:25:00.664Z,21.27
2018-07-07T11:27:27.574Z,21.88
2018-07-07T11:29:54.502Z,21.50
2018-07-07T11:32:21.425Z,21.28
2018-07-07T11:34:48.352Z,21.69
2018-07-07T11:37:15.256Z,20.99
2018-07-07T11:39:42.193Z,20.95
2018-07-07T11:42:09.097Z,20.85
2018-07-07T11:44:36.004Z,21.23
2018-07-07T11:47:02.950Z,21.62
2018-07-07T11:49:29.867Z,21.08
2018-07-07T11:51:56.776Z,21.47
2018-07-07T11:54:23.691Z,21.54
2018-07-07T11:56:50.688Z,21.12
2018-07-07T11:59:17.630Z,21.28
2018-07-07T12:01:44.584Z,21.32
2018-07-07T12:04:11.482Z,21.05
2018-07-07T12:06:38.458Z,21.36
2018-07-07T12:09:05.400Z,20.83
2018-07-07T12:11:32.426Z,21.15
2018-07-07T12:13:59.296Z,21.47
2018-07-07T12:16:26.192Z,21.26
2018-07-07T12:18:53.093Z,21.45
2018-07-07T12:21:20.022Z,21.19
2018-07-07T12:23:46.937Z,20.79
2018-07-07T12:26:13.843Z,20.82
2018-07-07T12:28:40.757Z,21.34
2018-07-07T12:31:07.700Z,21.09
2018-07-07T12:33:34.628Z,20.99
2018-07-07T12:36:01.610Z,21.57
2018-07-07T12:38:28.554Z,21.04
2018-07-07T12:40:55.471Z,20.79
2018-07-07T12:43:22.383Z,21.10
2018-07-07T12:45:49.323Z,21.44
2018-07-07T12:48:16.305Z,20.82
2018-07-07T12:50:43.214Z,20.70
2018-07-07T12:53:10.118Z,21.18
2018-07-07T12:55:37.092Z,21.19
2018-07-07T12:58:04.280Z,21.08
2018-07-07T13:00:31.214Z,21.12
2018-07-07T13:02:58.130Z,20.93
2018-07-07T13:05:25.081Z,21.45
2018-07-07T13:07:51.986Z,21.47
2018-07-07T13:10:18.883Z,21.31
2018-07-07T13:12:45.812Z,21.20
2018-07-07T13:15:12.838Z,21.49
2018-07-07T13:17:39.645Z,21.27
2018-07-07T13:20:06.601Z,20.92
2018-07-07T13:22:33.490Z,20.69
2018-07-07T13:25:00.404Z,21.27
2018-07-07T13:27:27.352Z,21.78
2018-07-07T13:29:54.269Z,21.09
2018-07-07T13:32:21.200Z,21.31
2018-07-07T13:34:48.129Z,21.62
2018-07-07T13:37:15.044Z,21.54
2018-07-07T13:39:42.697Z,21.62
2018-07-07T13:42:10.720Z,21.63
2018-07-07T13:44:37.632Z,21.68
2018-07-07T13:47:05.235Z,21.29
2018-07-07T13:49:32.139Z,20.87
2018-07-07T13:51:59.071Z,20.82
2018-07-07T13:54:26.034Z,21.20
2018-07-07T13:56:52.968Z,21.34
2018-07-07T13:59:19.869Z,21.26
2018-07-07T14:01:46.767Z,21.18
2018-07-07T14:04:13.749Z,21.69
2018-07-07T14:06:40.681Z,21.75
2018-07-07T14:09:08.056Z,21.99
2018-07-07T14:11:34.948Z,21.63
2018-07-07T14:14:01.854Z,21.58
2018-07-07T14:16:28.744Z,21.01
2018-07-07T14:18:55.648Z,21.32
2018-07-07T14:21:22.572Z,21.34
2018-07-07T14:23:49.482Z,21.29
2018-07-07T14:26:16.410Z,20.98
2018-07-07T14:28:43.341Z,20.81
2018-07-07T14:31:10.264Z,21.06
2018-07-07T14:33:37.172Z,21.01
2018-07-07T14:36:04.155Z,21.08
2018-07-07T14:38:37.476Z,20.63
2018-07-07T14:41:12.897Z,20.95
2018-07-07T14:43:47.747Z,21.06
2018-07-07T14:46:14.643Z,20.78
2018-07-07T14:48:41.548Z,20.78
2018-07-07T14:51:08.526Z,20.64
2018-07-07T14:53:35.409Z,20.98
2018-07-07T14:56:02.325Z,21.01
2018-07-07T14:58:29.245Z,20.55
2018-07-07T15:00:56.157Z,20.39
2018-07-07T15:03:23.787Z,20.32
2018-07-07T15:05:50.701Z,20.59
2018-07-07T15:08:17.596Z,20.51
2018-07-07T15:10:44.538Z,20.32
2018-07-07T15:13:11.443Z,20.56
2018-07-07T15:15:38.463Z,20.49
2018-07-07T15:18:05.367Z,20.25
2018-07-07T15:20:32.269Z,20.48
2018-07-07T15:22:59.210Z,20.09
2018-07-07T15:25:26.136Z,20.15
2018-07-07T15:27:53.044Z,20.52
2018-07-07T15:30:19.932Z,20.76
2018-07-07T15:32:46.869Z,20.19
2018-07-07T15:35:13.765Z,20.27
2018-07-07T15:37:40.688Z,20.52
2018-07-07T15:40:07.684Z,20.26
2018-07-07T15:42:34.578Z,20.19
2018-07-07T15:45:01.503Z,20.22
2018-07-07T15:47:28.416Z,19.89
2018-07-07T15:49:55.403Z,19.97
2018-07-07T15:52:22.309Z,19.94
2018-07-07T15:54:49.236Z,19.54
2018-07-07T15:57:16.159Z,19.79
2018-07-07T15:59:43.063Z,20.00
2018-07-07T16:02:09.997Z,19.99
2018-07-07T16:04:36.945Z,19.93
2018-07-07T16:07:04.033Z,19.98
2018-07-07T16:09:30.944Z,19.79
2018-07-07T16:11:57.840Z,19.73
2018-07-07T16:14:24.748Z,19.61
2018-07-07T16:16:51.676Z,19.88
2018-07-07T16:19:18.572Z,19.43
2018-07-07T16:21:45.564Z,19.37
2018-07-07T16:24:12.443Z,19.59
2018-07-07T16:26:39.353Z,19.57
2018-07-07T16:29:06.268Z,19.48
2018-07-07T16:31:33.221Z,19.63
2018-07-07T16:34:00.453Z,19.62
2018-07-07T16:36:27.387Z,19.35
2018-07-07T16:38:54.321Z,19.25
2018-07-07T16:41:21.267Z,19.43
2018-07-07T16:43:48.208Z,18.85
2018-07-07T16:46:15.191Z,19.06
2018-07-07T16:48:42.146Z,19.21
2018-07-07T16:51:09.311Z,19.05
2018-07-07T16:53:36.232Z,19.06
2018-07-07T16:56:03.188Z,19.14
2018-07-07T16:58:30.406Z,18.76
2018-07-07T17:00:57.743Z,19.00
2018-07-07T17:03:24.692Z,18.72
2018-07-07T17:05:51.598Z,18.68
2018-07-07T17:08:18.557Z,18.63
2018-07-07T17:10:46.271Z,18.86
2018-07-07T17:13:13.538Z,18.78
2018-07-07T17:15:40.629Z,18.73
2018-07-07T17:18:07.567Z,18.84
2018-07-07T17:20:34.527Z,18.77
2018-07-07T17:23:01.465Z,18.83
2018-07-07T17:25:28.387Z,18.71
2018-07-07T17:27:55.372Z,18.73
2018-07-07T17:30:22.399Z,18.79
2018-07-07T17:32:49.389Z,18.79
2018-07-07T17:35:16.336Z,18.66
2018-07-07T17:37:43.284Z,18.58
2018-07-07T17:40:10.425Z,18.70
2018-07-07T17:42:37.340Z,18.63
2018-07-07T17:45:04.565Z,18.35
2018-07-07T17:47:31.577Z,18.11
2018-07-07T17:50:00.614Z,18.21
2018-07-07T17:52:27.943Z,18.21
2018-07-07T17:54:54.864Z,18.17
2018-07-07T17:57:21.796Z,18.13
2018-07-07T17:59:48.728Z,18.16
2018-07-07T18:02:15.688Z,18.04
2018-07-07T18:04:43.489Z,18.02
2018-07-07T18:07:10.412Z,18.09
2018-07-07T18:09:37.341Z,18.10
2018-07-07T18:12:04.684Z,17.93
2018-07-07T18:14:31.610Z,17.85
2018-07-07T18:16:58.521Z,17.86
2018-07-07T18:19:25.455Z,17.80
2018-07-07T18:21:52.556Z,17.66
2018-07-07T18:24:19.494Z,17.51
2018-07-07T18:26:46.403Z,17.52
2018-07-07T18:29:13.316Z,17.60
2018-07-07T18:31:40.243Z,17.60
2018-07-07T18:34:07.160Z,17.50
2018-07-07T18:36:34.066Z,17.38
2018-07-07T18:39:00.978Z,17.32
2018-07-07T18:41:27.884Z,17.35
2018-07-07T18:43:54.814Z,17.32
2018-07-07T18:46:21.728Z,17.11
2018-07-07T18:48:53.828Z,16.99
2018-07-07T18:51:21.115Z,16.85
2018-07-07T18:53:48.140Z,16.88
2018-07-07T18:56:15.395Z,16.88
2018-07-07T18:58:42.354Z,16.81
2018-07-07T19:01:09.346Z,16.70
2018-07-07T19:03:36.316Z,16.59
2018-07-07T19:06:03.357Z,16.52
2018-07-07T19:08:30.303Z,16.52
2018-07-07T19:10:57.961Z,16.48
2018-07-07T19:13:24.988Z,16.41
2018-07-07T19:15:52.599Z,16.44
2018-07-07T19:18:19.673Z,16.39
2018-07-07T19:20:52.473Z,16.27
2018-07-07T19:23:25.234Z,16.17
2018-07-07T19:25:58.270Z,16.19
2018-07-07T19:28:25.271Z,16.09
2018-07-07T19:30:52.463Z,16.14
2018-07-07T19:33:25.201Z,16.09
2018-07-07T19:35:57.859Z,15.96
2018-07-07T19:38:25.105Z,15.94
2018-07-07T19:40:52.142Z,15.84
2018-07-07T19:43:19.324Z,15.80
2018-07-07T19:45:46.295Z,15.75
2018-07-07T19:48:13.599Z,15.73
2018-07-07T19:50:40.545Z,15.72
2018-07-07T19:53:07.485Z,15.63
2018-07-07T19:55:34.424Z,15.60
2018-07-07T19:58:01.345Z,15.54
2018-07-07T20:00:28.243Z,15.42
2018-07-07T20:02:55.136Z,15.46
2018-07-07T20:05:22.065Z,15.42
2018-07-07T20:07:49.657Z,15.40
2018-07-07T20:10:16.720Z,15.33
2018-07-07T20:12:43.892Z,15.34
2018-07-07T20:15:10.971Z,15.30
2018-07-07T20:17:49.585Z,15.15
2018-07-07T20:20:37.787Z,15.18
2018-07-07T20:23:06.476Z,15.15
2018-07-07T20:25:33.435Z,15.10
2018-07-07T20:28:06.305Z,15.06
2018-07-07T20:30:34.084Z,15.01
2018-07-07T20:33:01.238Z,14.98
2018-07-07T20:35:28.415Z,14.96
2018-07-07T20:37:55.620Z,14.98
2018-07-07T20:40:22.736Z,14.98
2018-07-07T20:42:49.710Z,14.88
2018-07-07T20:45:16.892Z,14.85
2018-07-07T20:47:43.856Z,14.83
2018-07-07T20:50:10.807Z,14.85
2018-07-07T20:52:37.720Z,14.81
2018-07-07T20:55:06.236Z,14.78
2018-07-07T20:57:33.159Z,14.76
2018-07-07T21:00:00.304Z,14.69
2018-07-07T21:02:27.196Z,14.71
2018-07-07T21:04:54.127Z,14.65
2018-07-07T21:07:21.376Z,14.59
2018-07-07T21:09:48.310Z,14.57
2018-07-07T21:12:15.240Z,14.54
2018-07-07T21:14:42.323Z,14.51
2018-07-07T21:17:09.529Z,14.48
2018-07-07T21:19:36.457Z,14.48
2018-07-07T21:22:03.460Z,14.48
2018-07-07T21:24:30.473Z,14.49
2018-07-07T21:26:57.472Z,14.42
2018-07-07T21:29:24.461Z,14.35
2018-07-07T21:31:51.389Z,14.31
2018-07-07T21:34:18.307Z,14.36
2018-07-07T21:36:45.816Z,14.37
2018-07-07T21:39:12.963Z,14.39
2018-07-07T21:41:40.204Z,14.27
2018-07-07T21:44:07.312Z,14.26
2018-07-07T21:46:34.309Z,14.17
2018-07-07T21:49:01.226Z,14.12
2018-07-07T21:51:28.695Z,14.17
2018-07-07T21:53:55.810Z,14.19
2018-07-07T21:56:22.959Z,14.18
2018-07-07T21:58:54.612Z,14.17
2018-07-07T22:01:39.021Z,14.09
2018-07-07T22:04:11.750Z,14.11
2018-07-07T22:06:44.521Z,14.03
2018-07-07T22:09:11.765Z,14.02
2018-07-07T22:11:38.848Z,13.97
2018-07-07T22:14:05.786Z,14.01
2018-07-07T22:16:32.714Z,13.91
2018-07-07T22:18:59.613Z,13.96
2018-07-07T22:21:38.276Z,13.90
2018-07-07T22:24:05.203Z,13.86
2018-07-07T22:26:32.121Z,13.89
2018-07-07T22:28:59.045Z,13.90
2018-07-07T22:31:25.987Z,13.83
2018-07-07T22:33:52.897Z,13.79
2018-07-07T22:36:25.800Z,13.78
2018-07-07T22:38:54.831Z,13.72
2018-07-07T22:41:32.071Z,13.67
2018-07-07T22:43:59.380Z,13.67
2018-07-07T22:46:27.118Z,13.66
2018-07-07T22:48:54.482Z,13.67
2018-07-07T22:51:21.446Z,13.60
2018-07-07T22:53:48.524Z,13.59
2018-07-07T22:56:15.436Z,13.57
2018-07-07T22:58:42.728Z,13.55
2018-07-07T23:01:09.822Z,13.60
2018-07-07T23:03:36.746Z,13.51
2018-07-07T23:06:03.692Z,13.47
2018-07-07T23:08:31.236Z,13.44
2018-07-07T23:10:58.160Z,13.51
2018-07-07T23:13:25.252Z,13.47
2018-07-07T23:15:52.241Z,13.41
2018-07-07T23:18:19.671Z,13.46
2018-07-07T23:20:46.777Z,13.37
2018-07-07T23:23:13.777Z,13.37
2018-07-07T23:25:40.723Z,13.35
2018-07-07T23:28:07.651Z,13.36
2018-07-07T23:30:34.567Z,13.31
2018-07-07T23:33:01.514Z,13.34
2018-07-07T23:35:28.420Z,13.25
2018-07-07T23:37:55.336Z,13.22
2018-07-07T23:40:22.249Z,13.22
2018-07-07T23:42:49.166Z,13.20
2018-07-07T23:45:16.409Z,13.18
2018-07-07T23:47:43.938Z,13.12
2018-07-07T23:50:11.184Z,13.16
2018-07-07T23:52:38.098Z,13.09
2018-07-07T23:55:11.469Z,13.11
2018-07-07T23:57:49.152Z,13.12
